sensor_id;sensor_type;location;lat;lon;timestamp;P1;durP1;ratioP1;P2;durP2;ratioP2
49071;SDS011;52656;52.610;10.236;2023-04-16T00:00:50;46.20;;;28.50;;
49071;SDS011;52656;52.610;10.236;2023-04-16T00:03:16;39.58;;;26.90;;
49071;SDS011;52656;52.610;10.236;2023-04-16T00:05:41;43.08;;;27.00;;
49071;SDS011;52656;52.610;10.236;2023-04-16T00:08:06;39.60;;;27.33;;
49071;SDS011;52656;52.610;10.236;2023-04-16T00:10:33;42.38;;;26.27;;
49071;SDS011;52656;52.610;10.236;2023-04-16T00:12:59;46.10;;;29.65;;
49071;SDS011;52656;52.610;10.236;2023-04-16T00:15:24;42.05;;;26.38;;
49071;SDS011;52656;52.610;10.236;2023-04-16T00:17:50;40.45;;;27.55;;
49071;SDS011;52656;52.610;10.236;2023-04-16T00:20:15;40.42;;;25.27;;
49071;SDS011;52656;52.610;10.236;2023-04-16T00:22:41;42.47;;;27.13;;
49071;SDS011;52656;52.610;10.236;2023-04-16T00:25:06;44.03;;;26.83;;
49071;SDS011;52656;52.610;10.236;2023-04-16T00:27:31;47.28;;;28.92;;
49071;SDS011;52656;52.610;10.236;2023-04-16T00:29:57;35.65;;;23.40;;
49071;SDS011;52656;52.610;10.236;2023-04-16T00:32:22;41.00;;;24.05;;
49071;SDS011;52656;52.610;10.236;2023-04-16T00:34:47;41.35;;;24.85;;
49071;SDS011;52656;52.610;10.236;2023-04-16T00:37:13;38.92;;;24.05;;
49071;SDS011;52656;52.610;10.236;2023-04-16T00:39:38;41.22;;;25.35;;
49071;SDS011;52656;52.610;10.236;2023-04-16T00:42:03;42.40;;;26.33;;
49071;SDS011;52656;52.610;10.236;2023-04-16T00:44:29;40.88;;;26.30;;
49071;SDS011;52656;52.610;10.236;2023-04-16T00:46:55;36.45;;;25.73;;
49071;SDS011;52656;52.610;10.236;2023-04-16T00:49:22;32.33;;;21.88;;
49071;SDS011;52656;52.610;10.236;2023-04-16T00:51:48;39.75;;;23.33;;
49071;SDS011;52656;52.610;10.236;2023-04-16T00:54:14;33.13;;;21.30;;
49071;SDS011;52656;52.610;10.236;2023-04-16T00:56:39;39.70;;;23.50;;
49071;SDS011;52656;52.610;10.236;2023-04-16T00:59:05;35.08;;;22.02;;
49071;SDS011;52656;52.610;10.236;2023-04-16T01:01:31;37.90;;;22.83;;
49071;SDS011;52656;52.610;10.236;2023-04-16T01:03:56;38.08;;;24.13;;
49071;SDS011;52656;52.610;10.236;2023-04-16T01:06:21;40.60;;;25.85;;
49071;SDS011;52656;52.610;10.236;2023-04-16T01:08:47;39.43;;;27.10;;
49071;SDS011;52656;52.610;10.236;2023-04-16T01:11:13;34.13;;;22.20;;
49071;SDS011;52656;52.610;10.236;2023-04-16T01:13:39;35.85;;;22.08;;
49071;SDS011;52656;52.610;10.236;2023-04-16T01:16:05;42.85;;;24.88;;
49071;SDS011;52656;52.610;10.236;2023-04-16T01:18:31;40.92;;;24.02;;
49071;SDS011;52656;52.610;10.236;2023-04-16T01:20:57;34.28;;;20.50;;
49071;SDS011;52656;52.610;10.236;2023-04-16T01:23:23;40.83;;;24.63;;
49071;SDS011;52656;52.610;10.236;2023-04-16T01:25:48;44.90;;;27.43;;
49071;SDS011;52656;52.610;10.236;2023-04-16T01:28:13;45.57;;;26.60;;
49071;SDS011;52656;52.610;10.236;2023-04-16T01:30:39;34.13;;;19.98;;
49071;SDS011;52656;52.610;10.236;2023-04-16T01:33:04;37.13;;;22.48;;
49071;SDS011;52656;52.610;10.236;2023-04-16T01:35:31;35.83;;;22.13;;
49071;SDS011;52656;52.610;10.236;2023-04-16T01:37:56;38.17;;;20.77;;
49071;SDS011;52656;52.610;10.236;2023-04-16T01:40:21;38.88;;;24.17;;
49071;SDS011;52656;52.610;10.236;2023-04-16T01:42:47;36.75;;;24.33;;
49071;SDS011;52656;52.610;10.236;2023-04-16T01:45:12;39.90;;;26.38;;
49071;SDS011;52656;52.610;10.236;2023-04-16T01:47:37;40.40;;;26.30;;
49071;SDS011;52656;52.610;10.236;2023-04-16T01:50:03;38.75;;;24.85;;
49071;SDS011;52656;52.610;10.236;2023-04-16T01:52:29;45.03;;;25.30;;
49071;SDS011;52656;52.610;10.236;2023-04-16T01:54:55;44.45;;;27.23;;
49071;SDS011;52656;52.610;10.236;2023-04-16T01:57:20;45.38;;;26.00;;
49071;SDS011;52656;52.610;10.236;2023-04-16T01:59:45;49.65;;;28.77;;
49071;SDS011;52656;52.610;10.236;2023-04-16T02:02:11;40.67;;;21.85;;
49071;SDS011;52656;52.610;10.236;2023-04-16T02:04:39;48.65;;;29.63;;
49071;SDS011;52656;52.610;10.236;2023-04-16T02:07:05;46.03;;;28.20;;
49071;SDS011;52656;52.610;10.236;2023-04-16T02:11:58;46.58;;;29.05;;
49071;SDS011;52656;52.610;10.236;2023-04-16T02:14:23;41.65;;;28.27;;
49071;SDS011;52656;52.610;10.236;2023-04-16T02:16:49;44.08;;;28.38;;
49071;SDS011;52656;52.610;10.236;2023-04-16T02:19:15;41.13;;;24.20;;
49071;SDS011;52656;52.610;10.236;2023-04-16T02:21:40;42.97;;;26.60;;
49071;SDS011;52656;52.610;10.236;2023-04-16T02:24:06;46.90;;;26.77;;
49071;SDS011;52656;52.610;10.236;2023-04-16T02:26:32;48.78;;;28.40;;
49071;SDS011;52656;52.610;10.236;2023-04-16T02:28:57;46.70;;;27.48;;
49071;SDS011;52656;52.610;10.236;2023-04-16T02:31:22;47.83;;;30.98;;
49071;SDS011;52656;52.610;10.236;2023-04-16T02:33:48;38.55;;;22.60;;
49071;SDS011;52656;52.610;10.236;2023-04-16T02:36:13;42.47;;;23.58;;
49071;SDS011;52656;52.610;10.236;2023-04-16T02:38:38;42.35;;;27.45;;
49071;SDS011;52656;52.610;10.236;2023-04-16T02:41:04;44.90;;;25.05;;
49071;SDS011;52656;52.610;10.236;2023-04-16T02:43:29;43.35;;;26.45;;
49071;SDS011;52656;52.610;10.236;2023-04-16T02:45:54;41.72;;;25.95;;
49071;SDS011;52656;52.610;10.236;2023-04-16T02:48:19;38.55;;;24.83;;
49071;SDS011;52656;52.610;10.236;2023-04-16T02:50:45;43.90;;;27.17;;
49071;SDS011;52656;52.610;10.236;2023-04-16T02:53:10;48.23;;;27.87;;
49071;SDS011;52656;52.610;10.236;2023-04-16T02:55:35;43.20;;;25.90;;
49071;SDS011;52656;52.610;10.236;2023-04-16T02:58:01;47.67;;;27.50;;
49071;SDS011;52656;52.610;10.236;2023-04-16T03:00:26;48.22;;;28.95;;
49071;SDS011;52656;52.610;10.236;2023-04-16T03:02:51;49.42;;;27.08;;
49071;SDS011;52656;52.610;10.236;2023-04-16T03:05:16;46.57;;;26.50;;
49071;SDS011;52656;52.610;10.236;2023-04-16T03:07:42;41.75;;;26.10;;
49071;SDS011;52656;52.610;10.236;2023-04-16T03:10:07;47.60;;;28.30;;
49071;SDS011;52656;52.610;10.236;2023-04-16T03:12:33;40.80;;;27.38;;
49071;SDS011;52656;52.610;10.236;2023-04-16T03:14:59;43.88;;;26.77;;
49071;SDS011;52656;52.610;10.236;2023-04-16T03:17:25;48.78;;;26.73;;
49071;SDS011;52656;52.610;10.236;2023-04-16T03:19:50;44.13;;;27.45;;
49071;SDS011;52656;52.610;10.236;2023-04-16T03:22:16;41.85;;;24.40;;
49071;SDS011;52656;52.610;10.236;2023-04-16T03:24:41;44.85;;;24.90;;
49071;SDS011;52656;52.610;10.236;2023-04-16T03:27:06;42.23;;;26.63;;
49071;SDS011;52656;52.610;10.236;2023-04-16T03:29:32;46.57;;;28.33;;
49071;SDS011;52656;52.610;10.236;2023-04-16T03:31:57;45.03;;;28.63;;
49071;SDS011;52656;52.610;10.236;2023-04-16T03:34:22;43.10;;;27.75;;
49071;SDS011;52656;52.610;10.236;2023-04-16T03:36:48;42.20;;;25.15;;
49071;SDS011;52656;52.610;10.236;2023-04-16T03:39:13;42.78;;;26.33;;
49071;SDS011;52656;52.610;10.236;2023-04-16T03:41:38;44.28;;;27.40;;
49071;SDS011;52656;52.610;10.236;2023-04-16T03:44:04;43.55;;;25.25;;
49071;SDS011;52656;52.610;10.236;2023-04-16T03:46:29;39.53;;;23.80;;
49071;SDS011;52656;52.610;10.236;2023-04-16T03:48:55;42.13;;;26.48;;
49071;SDS011;52656;52.610;10.236;2023-04-16T03:51:20;43.53;;;25.70;;
49071;SDS011;52656;52.610;10.236;2023-04-16T03:53:45;46.38;;;27.23;;
49071;SDS011;52656;52.610;10.236;2023-04-16T03:56:10;44.90;;;27.27;;
49071;SDS011;52656;52.610;10.236;2023-04-16T03:58:36;46.47;;;27.17;;
49071;SDS011;52656;52.610;10.236;2023-04-16T04:01:01;44.37;;;26.77;;
49071;SDS011;52656;52.610;10.236;2023-04-16T04:03:26;40.33;;;26.63;;
49071;SDS011;52656;52.610;10.236;2023-04-16T04:05:52;42.97;;;25.20;;
49071;SDS011;52656;52.610;10.236;2023-04-16T04:08:18;46.28;;;26.55;;
49071;SDS011;52656;52.610;10.236;2023-04-16T04:10:44;42.67;;;27.45;;
49071;SDS011;52656;52.610;10.236;2023-04-16T04:13:09;46.85;;;27.08;;
49071;SDS011;52656;52.610;10.236;2023-04-16T04:15:35;44.58;;;26.63;;
49071;SDS011;52656;52.610;10.236;2023-04-16T04:18:00;43.08;;;28.13;;
49071;SDS011;52656;52.610;10.236;2023-04-16T04:20:26;41.63;;;25.30;;
49071;SDS011;52656;52.610;10.236;2023-04-16T04:22:51;48.88;;;27.13;;
49071;SDS011;52656;52.610;10.236;2023-04-16T04:25:16;46.08;;;27.08;;
49071;SDS011;52656;52.610;10.236;2023-04-16T04:27:42;41.55;;;26.15;;
49071;SDS011;52656;52.610;10.236;2023-04-16T04:30:08;46.80;;;27.02;;
49071;SDS011;52656;52.610;10.236;2023-04-16T04:32:34;43.38;;;26.55;;
49071;SDS011;52656;52.610;10.236;2023-04-16T04:35:00;39.92;;;25.83;;
49071;SDS011;52656;52.610;10.236;2023-04-16T04:37:26;41.38;;;26.30;;
49071;SDS011;52656;52.610;10.236;2023-04-16T04:39:52;49.40;;;25.33;;
49071;SDS011;52656;52.610;10.236;2023-04-16T04:42:17;43.58;;;25.45;;
49071;SDS011;52656;52.610;10.236;2023-04-16T04:44:44;39.38;;;24.52;;
49071;SDS011;52656;52.610;10.236;2023-04-16T04:47:10;41.67;;;25.95;;
49071;SDS011;52656;52.610;10.236;2023-04-16T04:49:35;42.92;;;24.45;;
49071;SDS011;52656;52.610;10.236;2023-04-16T04:52:01;40.35;;;25.95;;
49071;SDS011;52656;52.610;10.236;2023-04-16T04:54:29;42.22;;;25.58;;
49071;SDS011;52656;52.610;10.236;2023-04-16T04:56:55;39.58;;;26.30;;
49071;SDS011;52656;52.610;10.236;2023-04-16T04:59:21;39.50;;;25.08;;
49071;SDS011;52656;52.610;10.236;2023-04-16T05:04:12;37.20;;;24.23;;
49071;SDS011;52656;52.610;10.236;2023-04-16T05:06:37;36.77;;;23.53;;
49071;SDS011;52656;52.610;10.236;2023-04-16T05:09:03;40.28;;;23.55;;
49071;SDS011;52656;52.610;10.236;2023-04-16T05:11:28;38.13;;;23.67;;
49071;SDS011;52656;52.610;10.236;2023-04-16T05:13:54;38.08;;;22.70;;
49071;SDS011;52656;52.610;10.236;2023-04-16T05:16:19;34.93;;;21.80;;
49071;SDS011;52656;52.610;10.236;2023-04-16T05:18:44;35.43;;;21.90;;
49071;SDS011;52656;52.610;10.236;2023-04-16T05:21:09;35.60;;;22.08;;
49071;SDS011;52656;52.610;10.236;2023-04-16T05:23:35;36.00;;;22.77;;
49071;SDS011;52656;52.610;10.236;2023-04-16T05:26:00;37.15;;;22.98;;
49071;SDS011;52656;52.610;10.236;2023-04-16T05:28:25;35.05;;;21.52;;
49071;SDS011;52656;52.610;10.236;2023-04-16T05:30:51;35.75;;;23.95;;
49071;SDS011;52656;52.610;10.236;2023-04-16T05:33:16;35.20;;;22.13;;
49071;SDS011;52656;52.610;10.236;2023-04-16T05:35:41;32.30;;;21.55;;
49071;SDS011;52656;52.610;10.236;2023-04-16T05:38:07;33.03;;;22.08;;
49071;SDS011;52656;52.610;10.236;2023-04-16T05:40:32;33.95;;;21.90;;
49071;SDS011;52656;52.610;10.236;2023-04-16T05:42:57;34.63;;;22.85;;
49071;SDS011;52656;52.610;10.236;2023-04-16T05:45:23;37.92;;;21.35;;
49071;SDS011;52656;52.610;10.236;2023-04-16T05:47:48;32.25;;;21.60;;
49071;SDS011;52656;52.610;10.236;2023-04-16T05:50:13;30.80;;;21.83;;
49071;SDS011;52656;52.610;10.236;2023-04-16T05:52:39;34.72;;;21.48;;
49071;SDS011;52656;52.610;10.236;2023-04-16T05:55:04;37.40;;;22.13;;
49071;SDS011;52656;52.610;10.236;2023-04-16T05:57:31;32.47;;;21.08;;
49071;SDS011;52656;52.610;10.236;2023-04-16T06:02:22;30.73;;;19.90;;
49071;SDS011;52656;52.610;10.236;2023-04-16T06:04:47;31.52;;;19.95;;
49071;SDS011;52656;52.610;10.236;2023-04-16T06:09:39;32.25;;;21.08;;
49071;SDS011;52656;52.610;10.236;2023-04-16T06:12:04;29.98;;;20.00;;
49071;SDS011;52656;52.610;10.236;2023-04-16T06:14:29;33.10;;;19.15;;
49071;SDS011;52656;52.610;10.236;2023-04-16T06:16:55;30.02;;;20.27;;
49071;SDS011;52656;52.610;10.236;2023-04-16T06:19:20;22.27;;;11.65;;
49071;SDS011;52656;52.610;10.236;2023-04-16T06:21:45;30.48;;;19.98;;
49071;SDS011;52656;52.610;10.236;2023-04-16T06:24:11;28.92;;;18.63;;
49071;SDS011;52656;52.610;10.236;2023-04-16T06:26:37;28.75;;;18.27;;
49071;SDS011;52656;52.610;10.236;2023-04-16T06:29:02;27.67;;;19.48;;
49071;SDS011;52656;52.610;10.236;2023-04-16T06:31:28;33.70;;;20.83;;
49071;SDS011;52656;52.610;10.236;2023-04-16T06:36:19;31.15;;;20.38;;
49071;SDS011;52656;52.610;10.236;2023-04-16T06:38:44;28.05;;;19.50;;
49071;SDS011;52656;52.610;10.236;2023-04-16T06:41:11;31.02;;;18.67;;
49071;SDS011;52656;52.610;10.236;2023-04-16T06:43:38;32.63;;;18.52;;
49071;SDS011;52656;52.610;10.236;2023-04-16T06:46:03;30.23;;;20.15;;
49071;SDS011;52656;52.610;10.236;2023-04-16T06:48:28;29.45;;;18.30;;
49071;SDS011;52656;52.610;10.236;2023-04-16T06:50:54;30.42;;;19.17;;
49071;SDS011;52656;52.610;10.236;2023-04-16T06:55:45;32.17;;;16.75;;
49071;SDS011;52656;52.610;10.236;2023-04-16T06:58:10;28.53;;;18.83;;
49071;SDS011;52656;52.610;10.236;2023-04-16T07:00:36;34.73;;;19.80;;
49071;SDS011;52656;52.610;10.236;2023-04-16T07:03:01;27.57;;;18.73;;
49071;SDS011;52656;52.610;10.236;2023-04-16T07:05:27;24.15;;;16.65;;
49071;SDS011;52656;52.610;10.236;2023-04-16T07:07:52;27.38;;;16.75;;
49071;SDS011;52656;52.610;10.236;2023-04-16T07:10:17;28.25;;;17.08;;
49071;SDS011;52656;52.610;10.236;2023-04-16T07:12:43;25.83;;;18.02;;
49071;SDS011;52656;52.610;10.236;2023-04-16T07:15:08;27.83;;;17.58;;
49071;SDS011;52656;52.610;10.236;2023-04-16T07:20:00;24.48;;;16.63;;
49071;SDS011;52656;52.610;10.236;2023-04-16T07:22:25;24.38;;;16.25;;
49071;SDS011;52656;52.610;10.236;2023-04-16T07:24:50;27.77;;;18.08;;
49071;SDS011;52656;52.610;10.236;2023-04-16T07:27:15;24.58;;;16.00;;
49071;SDS011;52656;52.610;10.236;2023-04-16T07:29:41;25.55;;;16.63;;
49071;SDS011;52656;52.610;10.236;2023-04-16T07:32:06;21.02;;;14.02;;
49071;SDS011;52656;52.610;10.236;2023-04-16T07:34:32;23.08;;;15.38;;
49071;SDS011;52656;52.610;10.236;2023-04-16T07:36:57;20.73;;;12.73;;
49071;SDS011;52656;52.610;10.236;2023-04-16T07:39:23;22.38;;;13.85;;
49071;SDS011;52656;52.610;10.236;2023-04-16T07:41:48;21.08;;;13.48;;
49071;SDS011;52656;52.610;10.236;2023-04-16T07:44:13;26.95;;;14.95;;
49071;SDS011;52656;52.610;10.236;2023-04-16T07:46:38;19.73;;;12.90;;
49071;SDS011;52656;52.610;10.236;2023-04-16T07:49:04;23.20;;;14.30;;
49071;SDS011;52656;52.610;10.236;2023-04-16T07:51:29;26.55;;;16.95;;
49071;SDS011;52656;52.610;10.236;2023-04-16T07:53:55;25.98;;;15.43;;
49071;SDS011;52656;52.610;10.236;2023-04-16T07:56:20;23.50;;;14.98;;
49071;SDS011;52656;52.610;10.236;2023-04-16T07:58:46;21.92;;;15.07;;
49071;SDS011;52656;52.610;10.236;2023-04-16T08:01:11;27.88;;;15.90;;
49071;SDS011;52656;52.610;10.236;2023-04-16T08:03:36;19.00;;;10.00;;
49071;SDS011;52656;52.610;10.236;2023-04-16T08:06:01;27.63;;;16.67;;
49071;SDS011;52656;52.610;10.236;2023-04-16T08:08:27;23.42;;;14.63;;
49071;SDS011;52656;52.610;10.236;2023-04-16T08:10:53;25.33;;;14.80;;
49071;SDS011;52656;52.610;10.236;2023-04-16T08:13:21;25.63;;;16.05;;
49071;SDS011;52656;52.610;10.236;2023-04-16T08:15:47;22.50;;;15.52;;
49071;SDS011;52656;52.610;10.236;2023-04-16T08:18:13;24.17;;;17.15;;
49071;SDS011;52656;52.610;10.236;2023-04-16T08:20:39;24.77;;;15.95;;
49071;SDS011;52656;52.610;10.236;2023-04-16T08:23:05;27.45;;;16.13;;
49071;SDS011;52656;52.610;10.236;2023-04-16T08:25:30;26.92;;;12.45;;
49071;SDS011;52656;52.610;10.236;2023-04-16T08:27:56;27.50;;;16.85;;
49071;SDS011;52656;52.610;10.236;2023-04-16T08:30:21;26.73;;;17.10;;
49071;SDS011;52656;52.610;10.236;2023-04-16T08:32:46;25.55;;;15.20;;
49071;SDS011;52656;52.610;10.236;2023-04-16T08:35:12;22.27;;;12.60;;
49071;SDS011;52656;52.610;10.236;2023-04-16T08:37:37;24.75;;;17.20;;
49071;SDS011;52656;52.610;10.236;2023-04-16T08:40:03;28.52;;;17.25;;
49071;SDS011;52656;52.610;10.236;2023-04-16T08:42:30;24.70;;;16.83;;
49071;SDS011;52656;52.610;10.236;2023-04-16T08:45:16;25.67;;;17.33;;
49071;SDS011;52656;52.610;10.236;2023-04-16T08:47:45;29.55;;;16.95;;
49071;SDS011;52656;52.610;10.236;2023-04-16T08:50:17;22.75;;;16.00;;
49071;SDS011;52656;52.610;10.236;2023-04-16T08:52:55;23.45;;;16.33;;
49071;SDS011;52656;52.610;10.236;2023-04-16T08:55:36;22.70;;;16.35;;
49071;SDS011;52656;52.610;10.236;2023-04-16T08:58:12;26.17;;;17.42;;
49071;SDS011;52656;52.610;10.236;2023-04-16T09:00:39;25.00;;;16.80;;
49071;SDS011;52656;52.610;10.236;2023-04-16T09:03:08;26.20;;;17.23;;
49071;SDS011;52656;52.610;10.236;2023-04-16T09:05:34;25.40;;;17.52;;
49071;SDS011;52656;52.610;10.236;2023-04-16T09:08:00;29.00;;;17.23;;
49071;SDS011;52656;52.610;10.236;2023-04-16T09:10:25;25.65;;;16.80;;
49071;SDS011;52656;52.610;10.236;2023-04-16T09:12:54;25.08;;;17.52;;
49071;SDS011;52656;52.610;10.236;2023-04-16T09:15:20;24.83;;;16.27;;
49071;SDS011;52656;52.610;10.236;2023-04-16T09:20:11;29.20;;;17.48;;
49071;SDS011;52656;52.610;10.236;2023-04-16T09:22:37;27.63;;;17.80;;
49071;SDS011;52656;52.610;10.236;2023-04-16T09:25:06;28.60;;;18.52;;
49071;SDS011;52656;52.610;10.236;2023-04-16T09:27:32;30.02;;;18.25;;
49071;SDS011;52656;52.610;10.236;2023-04-16T09:29:57;27.08;;;17.98;;
49071;SDS011;52656;52.610;10.236;2023-04-16T09:32:23;26.23;;;17.85;;
49071;SDS011;52656;52.610;10.236;2023-04-16T09:34:57;24.75;;;17.25;;
49071;SDS011;52656;52.610;10.236;2023-04-16T09:37:26;23.38;;;17.42;;
49071;SDS011;52656;52.610;10.236;2023-04-16T09:40:01;24.80;;;17.92;;
49071;SDS011;52656;52.610;10.236;2023-04-16T09:42:36;23.73;;;16.63;;
49071;SDS011;52656;52.610;10.236;2023-04-16T09:45:02;26.27;;;17.02;;
49071;SDS011;52656;52.610;10.236;2023-04-16T09:47:38;25.67;;;16.98;;
49071;SDS011;52656;52.610;10.236;2023-04-16T09:50:05;22.67;;;16.33;;
49071;SDS011;52656;52.610;10.236;2023-04-16T09:52:34;24.42;;;16.95;;
49071;SDS011;52656;52.610;10.236;2023-04-16T09:55:00;25.60;;;17.05;;
49071;SDS011;52656;52.610;10.236;2023-04-16T09:57:26;27.63;;;15.38;;
49071;SDS011;52656;52.610;10.236;2023-04-16T09:59:52;29.75;;;17.52;;
49071;SDS011;52656;52.610;10.236;2023-04-16T10:02:18;29.50;;;18.48;;
49071;SDS011;52656;52.610;10.236;2023-04-16T10:04:50;25.80;;;18.00;;
49071;SDS011;52656;52.610;10.236;2023-04-16T10:07:17;28.48;;;18.23;;
49071;SDS011;52656;52.610;10.236;2023-04-16T10:09:43;28.02;;;18.30;;
49071;SDS011;52656;52.610;10.236;2023-04-16T10:12:08;24.27;;;18.00;;
49071;SDS011;52656;52.610;10.236;2023-04-16T10:14:34;24.83;;;17.13;;
49071;SDS011;52656;52.610;10.236;2023-04-16T10:17:00;26.05;;;18.40;;
49071;SDS011;52656;52.610;10.236;2023-04-16T10:19:27;25.70;;;18.52;;
49071;SDS011;52656;52.610;10.236;2023-04-16T10:21:53;31.02;;;21.08;;
49071;SDS011;52656;52.610;10.236;2023-04-16T10:24:19;31.70;;;21.20;;
49071;SDS011;52656;52.610;10.236;2023-04-16T10:26:45;27.98;;;18.95;;
49071;SDS011;52656;52.610;10.236;2023-04-16T10:29:13;25.38;;;19.05;;
49071;SDS011;52656;52.610;10.236;2023-04-16T10:31:39;23.65;;;17.38;;
49071;SDS011;52656;52.610;10.236;2023-04-16T10:34:06;24.85;;;17.55;;
49071;SDS011;52656;52.610;10.236;2023-04-16T10:36:36;26.02;;;17.50;;
49071;SDS011;52656;52.610;10.236;2023-04-16T10:39:01;24.67;;;18.00;;
49071;SDS011;52656;52.610;10.236;2023-04-16T10:41:27;28.05;;;17.70;;
49071;SDS011;52656;52.610;10.236;2023-04-16T10:43:54;26.73;;;17.77;;
49071;SDS011;52656;52.610;10.236;2023-04-16T10:46:32;25.20;;;15.98;;
49071;SDS011;52656;52.610;10.236;2023-04-16T10:49:11;24.17;;;16.77;;
49071;SDS011;52656;52.610;10.236;2023-04-16T10:51:39;22.20;;;15.20;;
49071;SDS011;52656;52.610;10.236;2023-04-16T10:56:34;22.63;;;16.95;;
49071;SDS011;52656;52.610;10.236;2023-04-16T10:59:03;26.25;;;17.25;;
49071;SDS011;52656;52.610;10.236;2023-04-16T11:01:30;22.77;;;17.25;;
49071;SDS011;52656;52.610;10.236;2023-04-16T11:03:58;22.85;;;15.90;;
49071;SDS011;52656;52.610;10.236;2023-04-16T11:06:28;23.17;;;16.77;;
49071;SDS011;52656;52.610;10.236;2023-04-16T11:11:19;25.20;;;15.55;;
49071;SDS011;52656;52.610;10.236;2023-04-16T11:13:45;26.88;;;16.08;;
49071;SDS011;52656;52.610;10.236;2023-04-16T11:18:37;23.15;;;15.35;;
49071;SDS011;52656;52.610;10.236;2023-04-16T11:21:08;21.98;;;13.48;;
49071;SDS011;52656;52.610;10.236;2023-04-16T11:23:50;20.50;;;14.20;;
49071;SDS011;52656;52.610;10.236;2023-04-16T11:26:23;20.38;;;13.35;;
49071;SDS011;52656;52.610;10.236;2023-04-16T11:28:50;22.98;;;16.08;;
49071;SDS011;52656;52.610;10.236;2023-04-16T11:33:41;18.90;;;13.27;;
49071;SDS011;52656;52.610;10.236;2023-04-16T11:36:07;23.77;;;15.30;;
49071;SDS011;52656;52.610;10.236;2023-04-16T11:38:36;22.42;;;15.18;;
49071;SDS011;52656;52.610;10.236;2023-04-16T11:41:02;20.23;;;15.90;;
49071;SDS011;52656;52.610;10.236;2023-04-16T11:46:03;20.25;;;15.15;;
49071;SDS011;52656;52.610;10.236;2023-04-16T11:48:48;18.83;;;12.68;;
49071;SDS011;52656;52.610;10.236;2023-04-16T11:51:15;20.17;;;15.27;;
49071;SDS011;52656;52.610;10.236;2023-04-16T11:56:25;21.50;;;14.85;;
49071;SDS011;52656;52.610;10.236;2023-04-16T11:59:14;17.95;;;14.05;;
49071;SDS011;52656;52.610;10.236;2023-04-16T12:01:41;17.98;;;13.40;;
49071;SDS011;52656;52.610;10.236;2023-04-16T12:04:12;16.33;;;12.60;;
49071;SDS011;52656;52.610;10.236;2023-04-16T12:06:39;20.40;;;12.43;;
49071;SDS011;52656;52.610;10.236;2023-04-16T12:11:49;19.40;;;13.93;;
49071;SDS011;52656;52.610;10.236;2023-04-16T12:16:40;15.27;;;12.13;;
49071;SDS011;52656;52.610;10.236;2023-04-16T12:21:35;16.83;;;11.93;;
49071;SDS011;52656;52.610;10.236;2023-04-16T12:24:08;19.08;;;11.50;;
49071;SDS011;52656;52.610;10.236;2023-04-16T12:26:35;15.57;;;11.32;;
49071;SDS011;52656;52.610;10.236;2023-04-16T12:31:39;17.23;;;12.00;;
49071;SDS011;52656;52.610;10.236;2023-04-16T12:36:30;14.63;;;11.30;;
49071;SDS011;52656;52.610;10.236;2023-04-16T12:41:21;15.15;;;11.20;;
49071;SDS011;52656;52.610;10.236;2023-04-16T12:46:11;13.30;;;10.13;;
49071;SDS011;52656;52.610;10.236;2023-04-16T12:51:02;15.07;;;10.52;;
49071;SDS011;52656;52.610;10.236;2023-04-16T12:55:53;15.25;;;11.82;;
49071;SDS011;52656;52.610;10.236;2023-04-16T13:00:44;16.83;;;11.73;;
49071;SDS011;52656;52.610;10.236;2023-04-16T13:05:35;13.80;;;11.18;;
49071;SDS011;52656;52.610;10.236;2023-04-16T13:10:26;15.00;;;10.88;;
49071;SDS011;52656;52.610;10.236;2023-04-16T13:15:17;16.80;;;11.30;;
49071;SDS011;52656;52.610;10.236;2023-04-16T13:20:07;14.23;;;10.87;;
49071;SDS011;52656;52.610;10.236;2023-04-16T13:24:58;14.70;;;10.77;;
49071;SDS011;52656;52.610;10.236;2023-04-16T13:29:49;14.85;;;9.88;;
49071;SDS011;52656;52.610;10.236;2023-04-16T13:32:14;15.23;;;9.52;;
49071;SDS011;52656;52.610;10.236;2023-04-16T13:37:05;15.80;;;11.27;;
49071;SDS011;52656;52.610;10.236;2023-04-16T13:41:56;15.23;;;10.52;;
49071;SDS011;52656;52.610;10.236;2023-04-16T13:46:46;12.95;;;9.80;;
49071;SDS011;52656;52.610;10.236;2023-04-16T13:51:37;13.88;;;9.57;;
49071;SDS011;52656;52.610;10.236;2023-04-16T13:56:27;14.05;;;9.20;;
49071;SDS011;52656;52.610;10.236;2023-04-16T14:01:18;12.80;;;9.50;;
49071;SDS011;52656;52.610;10.236;2023-04-16T14:06:09;13.38;;;8.65;;
49071;SDS011;52656;52.610;10.236;2023-04-16T14:10:59;14.50;;;10.98;;
49071;SDS011;52656;52.610;10.236;2023-04-16T14:15:53;14.93;;;11.00;;
49071;SDS011;52656;52.610;10.236;2023-04-16T14:18:18;13.98;;;10.57;;
49071;SDS011;52656;52.610;10.236;2023-04-16T14:23:10;15.70;;;11.00;;
49071;SDS011;52656;52.610;10.236;2023-04-16T14:25:36;13.88;;;10.52;;
49071;SDS011;52656;52.610;10.236;2023-04-16T14:30:27;13.90;;;8.73;;
49071;SDS011;52656;52.610;10.236;2023-04-16T14:35:18;14.40;;;9.98;;
49071;SDS011;52656;52.610;10.236;2023-04-16T14:40:08;13.40;;;9.70;;
49071;SDS011;52656;52.610;10.236;2023-04-16T14:42:35;16.98;;;9.90;;
49071;SDS011;52656;52.610;10.236;2023-04-16T14:45:01;13.63;;;9.55;;
49071;SDS011;52656;52.610;10.236;2023-04-16T14:47:27;13.82;;;10.50;;
49071;SDS011;52656;52.610;10.236;2023-04-16T14:52:18;17.20;;;9.77;;
49071;SDS011;52656;52.610;10.236;2023-04-16T14:57:09;10.82;;;7.95;;
49071;SDS011;52656;52.610;10.236;2023-04-16T15:02:00;12.20;;;8.98;;
49071;SDS011;52656;52.610;10.236;2023-04-16T15:06:51;13.77;;;8.52;;
49071;SDS011;52656;52.610;10.236;2023-04-16T15:11:42;13.68;;;10.45;;
49071;SDS011;52656;52.610;10.236;2023-04-16T15:16:33;14.82;;;10.55;;
49071;SDS011;52656;52.610;10.236;2023-04-16T15:21:24;12.07;;;9.52;;
49071;SDS011;52656;52.610;10.236;2023-04-16T15:23:50;11.93;;;9.05;;
49071;SDS011;52656;52.610;10.236;2023-04-16T15:28:41;11.18;;;9.25;;
49071;SDS011;52656;52.610;10.236;2023-04-16T15:33:31;10.70;;;7.28;;
49071;SDS011;52656;52.610;10.236;2023-04-16T15:38:22;11.55;;;8.30;;
49071;SDS011;52656;52.610;10.236;2023-04-16T15:43:14;9.38;;;6.05;;
49071;SDS011;52656;52.610;10.236;2023-04-16T15:45:39;9.48;;;7.03;;
49071;SDS011;52656;52.610;10.236;2023-04-16T15:50:30;8.85;;;5.45;;
49071;SDS011;52656;52.610;10.236;2023-04-16T15:55:21;8.00;;;6.05;;
49071;SDS011;52656;52.610;10.236;2023-04-16T16:00:12;8.95;;;6.13;;
49071;SDS011;52656;52.610;10.236;2023-04-16T16:02:39;6.82;;;5.72;;
49071;SDS011;52656;52.610;10.236;2023-04-16T16:05:05;9.90;;;6.53;;
49071;SDS011;52656;52.610;10.236;2023-04-16T16:07:34;8.40;;;6.35;;
49071;SDS011;52656;52.610;10.236;2023-04-16T16:10:00;10.77;;;7.35;;
49071;SDS011;52656;52.610;10.236;2023-04-16T16:14:51;8.60;;;5.82;;
49071;SDS011;52656;52.610;10.236;2023-04-16T16:19:44;10.60;;;6.97;;
49071;SDS011;52656;52.610;10.236;2023-04-16T16:24:34;11.90;;;7.15;;
49071;SDS011;52656;52.610;10.236;2023-04-16T16:29:25;10.43;;;6.93;;
49071;SDS011;52656;52.610;10.236;2023-04-16T16:34:16;11.77;;;8.70;;
49071;SDS011;52656;52.610;10.236;2023-04-16T16:39:09;12.65;;;8.90;;